Time;durP1;ratioP1;P1;durP2;ratioP2;P2;SDS_P1;SDS_P2;PMS_P1;PMS_P2;Temp;Humidity;BMP_temperature;BMP_pressure;BME280_temperature;BME280_humidity;BME280_pressure;Samples;Min_cycle;Max_cycle;Signal;HPM_P1;HPM_P2
2021/10/26 00:02:01;;;;;;;1.80;1.02;;;;;;;13.25;41.46;103199.29;1727266;82;21062;-50
2021/10/26 00:04:28;;;;;;;1.30;1.20;;;;;;;13.26;41.55;103198.41;1727278;82;21031;-52
2021/10/26 00:06:54;;;;;;;1.35;1.25;;;;;;;13.26;41.58;103204.95;1727572;82;21058;-49
2021/10/26 00:09:22;;;;;;;1.95;1.10;;;;;;;13.26;41.47;103199.29;1727078;82;20995;-53
2021/10/26 00:11:50;;;;;;;1.15;1.05;;;;;;;13.28;41.44;103198.87;1727798;82;21038;-49
2021/10/26 00:14:17;;;;;;;0.88;0.88;;;;;;;13.30;41.73;103205.41;1730535;82;21567;-51
2021/10/26 00:16:43;;;;;;;1.37;1.10;;;;;;;13.31;41.54;103199.33;1730406;82;21019;-50
2021/10/26 00:19:10;;;;;;;1.55;1.10;;;;;;;13.33;41.32;103194.98;1684652;82;21049;-50
2021/10/26 00:21:37;;;;;;;1.02;0.93;;;;;;;13.37;41.49;103195.44;1727760;82;20991;-50
2021/10/26 00:24:05;;;;;;;1.12;1.12;;;;;;;13.38;41.65;103191.94;1730559;82;20996;-51
2021/10/26 00:26:31;;;;;;;1.32;1.20;;;;;;;13.39;41.86;103189.78;1717457;82;21011;-49
2021/10/26 00:28:58;;;;;;;1.12;0.90;;;;;;;13.41;41.72;103193.27;1730086;82;20990;-51
2021/10/26 00:31:25;;;;;;;1.20;1.10;;;;;;;13.42;41.57;103187.16;1727178;82;21031;-50
2021/10/26 00:33:52;;;;;;;1.47;1.22;;;;;;;13.44;41.57;103188.05;1729699;82;21022;-49
2021/10/26 00:36:19;;;;;;;1.17;1.00;;;;;;;13.45;41.49;103183.27;1725319;82;21030;-51
2021/10/26 00:38:46;;;;;;;1.20;1.10;;;;;;;13.45;41.31;103180.23;1733054;82;21051;-51
2021/10/26 00:41:13;;;;;;;1.47;1.37;;;;;;;13.46;41.23;103181.08;1728744;82;21000;-52
2021/10/26 00:43:41;;;;;;;1.52;1.12;;;;;;;13.46;41.20;103178.46;1727410;82;20992;-50
2021/10/26 00:46:08;;;;;;;1.40;1.30;;;;;;;13.44;41.37;103175.84;1727428;82;21547;-52
2021/10/26 00:48:34;;;;;;;2.10;1.10;;;;;;;13.45;41.23;103175.42;1727009;82;20997;-49
2021/10/26 00:51:03;;;;;;;1.10;1.00;;;;;;;13.45;41.12;103172.81;1727345;82;21018;-51
2021/10/26 00:53:31;;;;;;;1.30;1.20;;;;;;;13.44;41.10;103172.34;1725845;82;21459;-50
2021/10/26 00:55:58;;;;;;;1.95;1.50;;;;;;;13.43;41.17;103173.23;1730313;82;21464;-52
2021/10/26 00:58:27;;;;;;;1.45;1.10;;;;;;;13.43;41.13;103169.31;1731435;82;21038;-52
2021/10/26 01:00:53;;;;;;;1.62;1.30;;;;;;;13.41;41.30;103164.08;1736227;82;21105;-49
2021/10/26 01:03:20;;;;;;;2.77;1.60;;;;;;;13.40;41.53;103169.28;1708143;82;21566;-51
2021/10/26 01:05:48;;;;;;;1.90;1.42;;;;;;;13.39;41.58;103170.16;1736651;82;21007;-52
2021/10/26 01:08:16;;;;;;;1.60;1.47;;;;;;;13.37;41.72;103168.86;1738924;82;21070;-49
2021/10/26 01:10:43;;;;;;;3.90;1.70;;;;;;;13.35;41.79;103162.75;1738638;82;21042;-52
2021/10/26 01:13:09;;;;;;;2.10;1.52;;;;;;;13.33;41.78;103162.29;1736257;82;20994;-50
2021/10/26 01:15:40;;;;;;;2.08;1.47;;;;;;;13.30;41.75;103161.84;1735220;81;21063;-51
2021/10/26 01:18:11;;;;;;;1.57;1.35;;;;;;;13.29;41.55;103156.61;1697779;83;21034;-51
2021/10/26 01:20:38;;;;;;;1.37;1.27;;;;;;;13.27;41.65;103155.73;1694739;84;21148;-52
2021/10/26 01:23:05;;;;;;;1.47;1.37;;;;;;;13.25;41.79;103158.30;1694748;84;21099;-49
2021/10/26 01:25:35;;;;;;;1.70;1.60;;;;;;;13.24;42.06;103160.92;1694647;84;21102;-50
2021/10/26 01:28:01;;;;;;;1.72;1.40;;;;;;;13.22;42.24;103157.42;1705514;84;20972;-54
2021/10/26 01:30:33;;;;;;;5.72;1.67;;;;;;;13.20;42.31;103153.93;1698396;84;21094;-51
2021/10/26 01:33:03;;;;;;;1.67;1.35;;;;;;;13.19;42.38;103153.50;1697916;84;21006;-51
2021/10/26 01:35:38;;;;;;;2.52;1.80;;;;;;;13.18;42.15;103146.09;1653715;86;21043;-50
2021/10/26 01:38:05;;;;;;;1.50;1.40;;;;;;;13.18;41.79;103151.73;1654356;86;21121;-51
2021/10/26 01:40:33;;;;;;;3.15;1.50;;;;;;;13.19;41.73;103149.58;1662554;86;21027;-52
2021/10/26 01:43:00;;;;;;;1.60;1.50;;;;;;;13.21;41.77;103150.47;1653651;86;21086;-50
2021/10/26 01:45:26;;;;;;;1.45;1.35;;;;;;;13.23;41.81;103148.73;1655423;86;21063;-49
2021/10/26 01:47:55;;;;;;;1.90;1.42;;;;;;;13.25;41.79;103152.23;1615122;87;20999;-50
2021/10/26 01:50:21;;;;;;;1.85;1.40;;;;;;;13.26;41.83;103146.12;1654094;86;21055;-49
2021/10/26 01:52:49;;;;;;;1.70;1.60;;;;;;;13.27;42.23;103148.73;1673676;86;21070;-52
2021/10/26 01:55:18;;;;;;;2.02;1.57;;;;;;;13.28;42.42;103148.30;1659767;85;21039;-52
2021/10/26 01:57:47;;;;;;;2.00;1.60;;;;;;;13.29;42.46;103143.53;1614047;89;21079;-52
2021/10/26 02:00:20;;;;;;;2.17;1.47;;;;;;;13.30;42.58;103141.34;1680259;85;21050;-49
2021/10/26 02:02:49;;;;;;;1.60;1.50;;;;;;;13.32;43.06;103142.22;1687664;85;21546;-52
2021/10/26 02:05:17;;;;;;;2.42;1.87;;;;;;;13.32;43.45;103143.53;1687473;85;21078;-51
2021/10/26 02:07:46;;;;;;;2.12;1.70;;;;;;;13.35;43.52;103144.87;1687393;85;21070;-50
2021/10/26 02:10:13;;;;;;;2.90;1.90;;;;;;;13.37;43.67;103147.05;1687383;85;21006;-52
2021/10/26 02:12:40;;;;;;;2.83;1.52;;;;;;;13.38;43.81;103137.02;1687566;85;21101;-50
2021/10/26 02:15:09;;;;;;;3.80;1.92;;;;;;;13.40;44.23;103142.70;1687937;85;21486;-50
2021/10/26 02:17:36;;;;;;;2.65;2.08;;;;;;;13.41;44.45;103144.89;1687468;85;21022;-50
2021/10/26 02:20:07;;;;;;;3.90;1.95;;;;;;;13.43;44.41;103141.85;1681633;85;21015;-52
2021/10/26 02:22:34;;;;;;;2.80;2.22;;;;;;;13.43;44.53;103144.47;1687504;85;21099;-49
2021/10/26 02:25:01;;;;;;;3.45;2.10;;;;;;;13.45;44.35;103142.73;1687507;85;21006;-52
2021/10/26 02:27:28;;;;;;;3.98;2.10;;;;;;;13.46;44.12;103141.84;1687500;85;21042;-51
2021/10/26 02:29:56;;;;;;;2.72;1.67;;;;;;;13.48;44.37;103142.72;1687531;85;21090;-51
2021/10/26 02:32:22;;;;;;;3.42;2.40;;;;;;;13.49;44.44;103147.10;1705461;83;21033;-52
2021/10/26 02:34:49;;;;;;;2.72;2.15;;;;;;;13.50;44.47;103150.14;1719377;83;20988;-50
2021/10/26 02:37:16;;;;;;;2.72;2.47;;;;;;;13.50;44.55;103142.30;1718700;83;21070;-51
2021/10/26 02:39:44;;;;;;;3.60;2.10;;;;;;;13.50;44.50;103140.56;1716120;82;20999;-51
2021/10/26 02:42:11;;;;;;;3.35;2.20;;;;;;;13.52;44.49;103144.48;1714771;83;21050;-51
2021/10/26 02:44:38;;;;;;;3.10;2.33;;;;;;;13.53;44.57;103136.66;1714538;83;21006;-51
2021/10/26 02:47:05;;;;;;;3.05;2.45;;;;;;;13.53;44.36;103137.09;1722762;83;20986;-49
2021/10/26 02:49:32;;;;;;;3.27;2.72;;;;;;;13.56;44.47;103134.50;1707887;82;21074;-50
2021/10/26 02:51:59;;;;;;;3.22;2.67;;;;;;;13.56;44.82;103131.89;1717924;83;21014;-51
2021/10/26 02:54:26;;;;;;;4.75;2.90;;;;;;;13.58;45.03;103131.45;1715874;83;21471;-51
2021/10/26 02:56:53;;;;;;;4.53;2.30;;;;;;;13.59;45.16;103133.19;1716524;83;20978;-50
2021/10/26 02:59:21;;;;;;;4.97;2.60;;;;;;;13.60;45.09;103134.95;1719448;82;21007;-49
2021/10/26 03:01:48;;;;;;;3.60;2.80;;;;;;;13.60;45.38;103131.03;1727134;82;21488;-51
2021/10/26 03:04:14;;;;;;;3.00;2.47;;;;;;;13.60;45.50;103127.10;1729411;82;21024;-50
2021/10/26 03:06:43;;;;;;;4.97;3.02;;;;;;;13.60;45.31;103132.34;1730455;82;21022;-50
2021/10/26 03:09:11;;;;;;;3.87;2.67;;;;;;;13.60;45.08;103135.80;1730260;82;21578;-50
2021/10/26 03:11:38;;;;;;;2.90;2.60;;;;;;;13.60;45.11;103135.80;1734326;82;21022;-50
2021/10/26 03:14:06;;;;;;;2.98;2.52;;;;;;;13.60;45.34;103137.57;1728231;82;21020;-50
2021/10/26 03:16:34;;;;;;;3.47;2.98;;;;;;;13.59;45.33;103130.57;1717957;82;21503;-51
2021/10/26 03:19:04;;;;;;;5.20;2.83;;;;;;;13.59;45.38;103136.69;1729452;82;21066;-51
2021/10/26 03:21:35;;;;;;;6.05;2.67;;;;;;;13.58;45.49;103132.30;1730598;82;21476;-50
2021/10/26 03:24:02;;;;;;;2.50;2.30;;;;;;;13.57;45.64;103131.88;1655340;86;21026;-54
2021/10/26 03:26:29;;;;;;;5.00;2.70;;;;;;;13.57;45.71;103131.00;1654409;86;21074;-51
2021/10/26 03:28:56;;;;;;;5.70;1.98;;;;;;;13.56;45.93;103135.35;1654243;86;21058;-49
2021/10/26 03:31:23;;;;;;;5.95;1.98;;;;;;;13.55;46.12;103129.70;1653900;86;21063;-50
2021/10/26 03:34:09;;;;;;;2.42;1.85;;;;;;;13.54;46.15;103127.08;1654775;86;21049;-50
2021/10/26 03:36:37;;;;;;;1.90;1.60;;;;;;;13.52;46.43;103132.71;1654666;86;21066;-51
2021/10/26 03:39:04;;;;;;;3.25;2.05;;;;;;;13.51;46.52;103129.67;1654933;86;21574;-49
2021/10/26 03:41:30;;;;;;;2.58;1.87;;;;;;;13.52;46.57;103136.63;1654959;86;21054;-50
2021/10/26 03:43:58;;;;;;;1.98;1.75;;;;;;;13.54;46.46;103131.86;1654096;86;21038;-51
2021/10/26 03:46:25;;;;;;;2.40;1.72;;;;;;;13.57;46.53;103131.00;1654064;86;21539;-49
2021/10/26 03:48:53;;;;;;;2.42;2.20;;;;;;;13.60;46.51;103127.10;1655146;86;21540;-51
2021/10/26 03:51:20;;;;;;;3.02;2.10;;;;;;;13.62;46.35;103124.06;1614035;88;21052;-51
2021/10/26 03:53:47;;;;;;;3.17;1.70;;;;;;;13.64;46.41;103130.17;1608675;88;21077;-51
2021/10/26 03:56:14;;;;;;;2.77;2.02;;;;;;;13.66;46.64;103127.13;1613945;89;21097;-51
2021/10/26 03:58:42;;;;;;;2.72;1.80;;;;;;;13.66;46.71;103121.89;1614282;89;21041;-50
2021/10/26 04:01:11;;;;;;;1.85;1.60;;;;;;;13.64;46.76;103116.62;1578965;91;21092;-49
2021/10/26 04:03:39;;;;;;;3.22;1.80;;;;;;;13.66;46.72;103119.27;1579658;91;21676;-50
2021/10/26 04:06:09;;;;;;;2.00;1.72;;;;;;;13.67;46.76;103124.50;1579714;91;21053;-50
2021/10/26 04:08:51;;;;;;;2.95;1.87;;;;;;;13.67;46.88;103123.62;1580061;91;21613;-50
2021/10/26 04:11:12;;;;;;;2.52;2.27;;;;;;;13.66;47.05;103124.50;1579854;91;21108;-51
2021/10/26 04:13:36;;;;;;;2.85;1.70;;;;;;;13.66;47.11;103120.58;1579646;91;21086;-51
2021/10/26 04:16:03;;;;;;;2.42;2.02;;;;;;;13.67;47.20;103113.16;1593269;89;21569;-50
2021/10/26 04:18:30;;;;;;;4.45;2.20;;;;;;;13.67;47.29;103115.77;1604405;89;21542;-50
2021/10/26 04:20:57;;;;;;;3.95;2.30;;;;;;;13.70;47.47;103119.72;1641040;86;21037;-50
2021/10/26 04:23:24;;;;;;;4.20;2.50;;;;;;;13.71;47.39;103111.86;1668672;86;21082;-50
2021/10/26 04:25:51;;;;;;;5.62;2.87;;;;;;;13.73;47.31;103107.94;1658800;86;21092;-50
2021/10/26 04:28:18;;;;;;;3.42;2.55;;;;;;;13.78;47.34;103106.22;1657672;86;21101;-51
2021/10/26 04:30:45;;;;;;;4.95;2.47;;;;;;;13.80;47.34;103101.86;1657790;86;21046;-50
2021/10/26 04:33:14;;;;;;;4.30;2.55;;;;;;;13.83;47.39;103107.96;1663436;86;21025;-52
2021/10/26 04:35:41;;;;;;;3.12;2.83;;;;;;;13.86;47.36;103099.25;1658881;86;21033;-54
2021/10/26 04:38:08;;;;;;;4.30;2.65;;;;;;;13.87;47.29;103099.67;1683699;83;21046;-50
2021/10/26 04:40:35;;;;;;;2.95;2.60;;;;;;;13.87;47.35;103101.86;1742363;82;21022;-50
2021/10/26 04:43:03;;;;;;;4.53;2.62;;;;;;;13.87;47.35;103103.17;1734139;82;21025;-51
2021/10/26 04:45:32;;;;;;;3.75;2.62;;;;;;;13.89;47.37;103100.55;1730879;82;21081;-54
2021/10/26 04:48:00;;;;;;;4.72;2.30;;;;;;;13.89;47.38;103107.09;1730911;82;21023;-51
2021/10/26 04:50:30;;;;;;;3.70;2.30;;;;;;;13.90;47.39;103108.86;1733277;82;21042;-53
2021/10/26 04:52:55;;;;;;;3.42;2.52;;;;;;;13.91;47.42;103106.66;1730062;82;21075;-51
2021/10/26 04:55:22;;;;;;;4.83;2.40;;;;;;;13.93;47.48;103112.77;1732713;82;20998;-51
2021/10/26 04:57:49;;;;;;;3.12;2.60;;;;;;;13.94;47.48;103104.48;1731616;81;21010;-51
2021/10/26 05:00:22;;;;;;;3.17;2.20;;;;;;;13.97;47.56;103115.86;1734256;82;21014;-52
2021/10/26 05:02:50;;;;;;;4.92;3.02;;;;;;;13.98;47.57;103108.43;1739465;82;21006;-51
2021/10/26 05:05:17;;;;;;;3.25;2.58;;;;;;;14.03;47.66;103114.56;1741687;82;21058;-53
2021/10/26 05:07:45;;;;;;;4.33;2.60;;;;;;;14.07;47.87;103112.81;1741156;82;21491;-51
2021/10/26 05:10:12;;;;;;;4.78;2.77;;;;;;;14.10;47.84;103106.25;1734078;82;20995;-50
2021/10/26 05:12:42;;;;;;;3.75;2.42;;;;;;;14.11;47.72;103108.89;1737439;82;21038;-53
2021/10/26 05:15:11;;;;;;;4.65;2.30;;;;;;;14.13;47.78;103112.38;1732246;82;21026;-52
2021/10/26 05:17:40;;;;;;;3.35;2.80;;;;;;;14.14;47.83;103114.11;1691060;84;21026;-52
2021/10/26 05:20:27;;;;;;;4.92;3.20;;;;;;;14.15;47.82;103104.52;1690979;85;21062;-51
2021/10/26 05:23:03;;;;;;;5.45;3.67;;;;;;;14.13;48.09;103112.38;1691179;85;21058;-51
2021/10/26 05:25:50;;;;;;;4.90;3.33;;;;;;;14.10;48.70;103109.75;1691186;84;21078;-51
2021/10/26 05:28:18;;;;;;;4.65;3.25;;;;;;;14.10;48.96;103109.75;1691119;85;21007;-52
2021/10/26 05:30:45;;;;;;;5.28;3.50;;;;;;;14.12;49.05;103113.23;1691204;85;21120;-51
2021/10/26 05:33:12;;;;;;;4.00;2.95;;;;;;;14.16;49.05;103111.48;1691220;85;21050;-52
2021/10/26 05:35:39;;;;;;;4.80;3.37;;;;;;;14.20;48.80;103119.36;1691305;85;21042;-52
2021/10/26 05:38:05;;;;;;;4.45;3.08;;;;;;;14.24;48.79;103113.24;1691176;85;21125;-50
2021/10/26 05:40:32;;;;;;;5.42;3.10;;;;;;;14.30;48.94;103116.36;1691549;85;21070;-51
2021/10/26 05:42:59;;;;;;;5.25;3.12;;;;;;;14.36;49.05;103120.28;1691488;85;21053;-54
2021/10/26 05:45:26;;;;;;;3.87;3.20;;;;;;;14.40;49.07;103112.86;1691529;85;20998;-50
2021/10/26 05:47:53;;;;;;;6.25;3.95;;;;;;;14.45;49.08;103120.27;1691451;85;21082;-51
2021/10/26 05:50:19;;;;;;;7.33;4.78;;;;;;;14.47;49.03;103113.28;1691429;85;21090;-51
2021/10/26 05:52:46;;;;;;;7.85;4.40;;;;;;;14.49;49.22;103117.65;1691255;85;21475;-50
2021/10/26 05:55:13;;;;;;;10.25;4.87;;;;;;;14.52;49.47;103120.28;1715730;82;21493;-51
2021/10/26 05:57:39;;;;;;;8.43;4.92;;;;;;;14.55;49.82;103122.00;1738828;81;20998;-51
2021/10/26 06:00:08;;;;;;;8.18;5.50;;;;;;;14.57;50.22;103121.14;1739663;82;21031;-51
2021/10/26 06:02:40;;;;;;;7.08;5.58;;;;;;;14.59;50.38;103124.63;1735917;82;21003;-51
2021/10/26 06:05:10;;;;;;;10.00;5.60;;;;;;;14.60;49.96;103126.39;1735681;82;21085;-51
2021/10/26 06:07:37;;;;;;;6.83;5.28;;;;;;;14.60;49.78;103131.63;1733392;82;21046;-52
2021/10/26 06:10:07;;;;;;;11.53;5.10;;;;;;;14.62;49.67;103132.50;1733637;82;21117;-51
2021/10/26 06:12:37;;;;;;;8.43;6.28;;;;;;;14.66;49.54;103134.24;1722989;82;21519;-50
2021/10/26 06:15:07;;;;;;;7.78;5.28;;;;;;;14.71;49.30;103136.86;1731646;82;21054;-52
2021/10/26 06:17:35;;;;;;;;;;;;;;;14.73;49.14;103139.05;1733877;82;21547;-52
2021/10/26 06:20:04;;;;;;;8.00;5.72;;;;;;;14.75;49.14;103138.61;1732701;82;20099;-52
2021/10/26 06:22:32;;;;;;;8.68;5.75;;;;;;;14.76;49.13;103139.45;1724787;82;20982;-51
2021/10/26 06:24:59;;;;;;;7.87;5.90;;;;;;;14.76;49.01;103144.70;1732205;82;21008;-50
2021/10/26 06:27:26;;;;;;;8.28;6.17;;;;;;;14.74;49.12;103138.59;1732825;82;21030;-50
2021/10/26 06:29:52;;;;;;;8.70;6.03;;;;;;;14.71;49.20;103139.48;1732809;82;21542;-51
2021/10/26 06:32:31;;;;;;;6.30;5.67;;;;;;;14.67;49.29;103137.28;1728458;82;20995;-50
2021/10/26 06:34:59;;;;;;;9.98;6.58;;;;;;;14.63;49.35;103134.23;1733116;82;21005;-53
2021/10/26 06:37:26;;;;;;;9.43;6.45;;;;;;;14.58;49.44;103138.62;1729692;82;21010;-50
2021/10/26 06:39:55;;;;;;;9.40;7.00;;;;;;;14.55;49.86;103138.61;1735194;82;21018;-52
2021/10/26 06:42:23;;;;;;;7.33;5.78;;;;;;;14.54;50.22;103126.39;1732996;82;21070;-53
2021/10/26 06:44:52;;;;;;;9.58;6.92;;;;;;;14.50;50.52;103139.06;1697756;83;21054;-52
2021/10/26 06:47:37;;;;;;;6.78;4.80;;;;;;;14.50;50.46;103129.89;1697180;83;21054;-53
2021/10/26 06:50:22;;;;;;;6.03;3.77;;;;;;;14.50;50.31;103124.66;1696727;83;21076;-51
2021/10/26 06:53:07;;;;;;;5.58;3.27;;;;;;;14.52;49.32;103126.83;1691840;83;21026;-50
2021/10/26 06:55:38;;;;;;;5.03;3.30;;;;;;;14.57;48.82;103121.14;1652215;86;21122;-51
2021/10/26 06:58:23;;;;;;;3.58;2.95;;;;;;;14.61;48.11;103123.34;1640832;86;21062;-52
2021/10/26 07:00:52;;;;;;;7.30;3.33;;;;;;;14.63;48.03;103126.38;1643047;86;21011;-52
2021/10/26 07:03:38;;;;;;;5.35;3.15;;;;;;;14.66;47.47;103121.14;1619911;88;21043;-49
2021/10/26 07:06:23;;;;;;;5.28;3.62;;;;;;;14.72;47.39;103120.67;1619945;88;21114;-54
2021/10/26 07:08:58;;;;;;;5.37;3.58;;;;;;;14.79;46.94;103123.73;1625933;88;21555;-54
2021/10/26 07:11:27;;;;;;;5.60;3.40;;;;;;;14.83;46.72;103120.23;1589445;90;21102;-49
2021/10/26 07:13:55;;;;;;;4.95;3.10;;;;;;;14.88;46.88;103130.29;1589613;89;21093;-49
2021/10/26 07:16:22;;;;;;;7.25;3.30;;;;;;;14.92;46.77;103121.54;1591970;89;21529;-55
2021/10/26 07:18:49;;;;;;;4.65;3.35;;;;;;;14.96;46.51;103123.28;1621521;88;21072;-52
2021/10/26 07:21:18;;;;;;;9.23;4.03;;;;;;;14.98;46.51;103121.52;1620046;88;21056;-52
2021/10/26 07:23:52;;;;;;;4.53;3.22;;;;;;;15.00;46.57;103121.08;1644134;86;21129;-52
2021/10/26 07:26:24;;;;;;;5.12;3.17;;;;;;;15.01;46.05;103118.45;1648320;86;21067;-49
2021/10/26 07:28:54;;;;;;;4.03;2.90;;;;;;;14.96;46.04;103121.97;1656818;86;21003;-50
2021/10/26 07:31:24;;;;;;;3.65;3.08;;;;;;;15.03;45.98;103115.81;1647089;86;21070;-49
2021/10/26 07:33:52;;;;;;;8.28;3.47;;;;;;;15.05;46.17;103116.68;1690070;84;21078;-50
2021/10/26 07:36:24;;;;;;;4.10;2.80;;;;;;;15.04;46.43;103117.14;1680029;84;21531;-52
2021/10/26 07:38:56;;;;;;;6.55;3.33;;;;;;;15.03;46.35;103115.81;1705043;84;21039;-56
2021/10/26 07:41:18;;;;;;;6.17;3.20;;;;;;;15.02;45.99;103119.33;1704065;84;21074;-52
2021/10/26 07:44:03;;;;;;;6.00;3.10;;;;;;;15.02;46.21;103116.70;1661486;86;21082;-50
2021/10/26 07:46:39;;;;;;;4.00;3.08;;;;;;;15.02;46.09;103114.09;1641503;87;21089;-52
2021/10/26 07:49:07;;;;;;;3.92;3.10;;;;;;;15.03;45.59;103110.56;1646838;87;21816;-50
2021/10/26 07:51:37;;;;;;;8.60;2.83;;;;;;;15.04;45.27;103111.91;1646793;86;21022;-50
2021/10/26 07:54:04;;;;;;;4.47;3.02;;;;;;;15.07;45.65;103114.92;1648535;86;21511;-50
2021/10/26 07:56:33;;;;;;;4.60;3.08;;;;;;;15.10;45.51;103118.44;1599414;89;21086;-53
2021/10/26 07:59:02;;;;;;;4.97;3.12;;;;;;;15.12;45.39;103117.11;1647319;87;20999;-49
2021/10/26 08:01:29;;;;;;;3.58;3.15;;;;;;;15.13;45.59;103118.41;1652897;86;21070;-52
2021/10/26 08:04:17;;;;;;;3.47;3.17;;;;;;;15.15;45.51;103119.27;1589956;90;21032;-50
2021/10/26 08:06:46;;;;;;;2.98;2.62;;;;;;;15.14;45.16;103114.92;1591627;89;21587;-52
2021/10/26 08:09:18;;;;;;;3.52;2.90;;;;;;;15.15;44.69;103115.77;1626992;88;21019;-52
2021/10/26 08:11:45;;;;;;;4.90;2.77;;;;;;;15.15;44.57;103115.77;1576633;89;21062;-53
2021/10/26 08:14:13;;;;;;;4.75;2.83;;;;;;;15.16;44.66;103112.29;1615754;88;21042;-53
2021/10/26 08:16:40;;;;;;;3.80;2.60;;;;;;;15.19;44.64;103113.57;1584856;89;21531;-53
2021/10/26 08:19:07;;;;;;;7.97;3.77;;;;;;;15.19;45.18;103117.50;1621712;88;21047;-52
2021/10/26 08:21:36;;;;;;;4.08;2.70;;;;;;;15.20;44.59;103111.40;1621066;88;21126;-51
2021/10/26 08:24:04;;;;;;;9.78;3.47;;;;;;;15.21;44.71;103113.12;1637377;86;21066;-52
2021/10/26 08:26:38;;;;;;;4.15;2.85;;;;;;;15.23;44.64;103113.98;1641280;87;21050;-54
2021/10/26 08:37:31;;;;;;;5.30;3.20;;;;;;;15.32;44.44;103125.77;1641664;86;21056;-52
2021/10/26 08:40:00;;;;;;;6.10;3.02;;;;;;;15.33;43.76;103131.47;1626441;87;21572;-53
2021/10/26 08:42:26;;;;;;;3.62;2.80;;;;;;;15.34;43.70;103124.02;1635594;87;21020;-51
2021/10/26 08:44:53;;;;;;;7.05;3.20;;;;;;;15.36;43.90;103124.88;1637293;87;21115;-52
2021/10/26 08:47:20;;;;;;;4.08;2.98;;;;;;;15.38;44.24;103124.44;1632098;87;21536;-51
2021/10/26 08:49:55;;;;;;;4.72;2.52;;;;;;;15.40;44.48;103130.55;1629439;87;21096;-50
2021/10/26 08:52:27;;;;;;;5.33;3.25;;;;;;;15.41;43.84;103130.53;1595564;89;21093;-50
2021/10/26 08:54:56;;;;;;;3.70;2.55;;;;;;;15.43;43.82;103133.20;1597009;89;21046;-50
2021/10/26 08:57:31;;;;;;;7.58;2.55;;;;;;;15.45;43.89;103131.45;1594988;89;21030;-50
2021/10/26 09:00:07;;;;;;;4.95;2.60;;;;;;;15.47;43.47;103128.37;1589751;89;21294;-52
2021/10/26 09:02:42;;;;;;;6.92;2.98;;;;;;;15.48;43.36;103119.61;1611679;89;21053;-55
2021/10/26 09:05:18;;;;;;;3.55;2.65;;;;;;;15.51;43.18;103126.60;1604798;89;21676;-53
2021/10/26 09:08:08;;;;;;;5.90;2.37;;;;;;;15.52;43.09;103123.96;1608867;89;21072;-53
2021/10/26 09:10:37;;;;;;;6.20;2.70;;;;;;;15.53;43.24;103120.91;1608754;87;21085;-54
2021/10/26 09:16:47;;;;;;;4.78;2.70;;;;;;;15.55;43.57;103118.72;1565157;91;21074;-51
2021/10/26 09:19:44;;;;;;;4.75;2.80;;;;;;;15.58;43.71;103117.38;1560080;91;21071;-51
2021/10/26 09:22:14;;;;;;;4.55;2.52;;;;;;;15.58;43.89;103116.06;1564112;91;21567;-50
2021/10/26 09:25:00;;;;;;;3.83;2.40;;;;;;;15.59;44.04;103113.88;1568203;91;21118;-51
2021/10/26 09:27:28;;;;;;;5.62;2.67;;;;;;;15.60;43.41;103110.36;1567806;91;21587;-53
2021/10/26 09:29:58;;;;;;;9.85;3.08;;;;;;;15.63;43.46;103113.42;1511051;93;21086;-48
2021/10/26 09:32:44;;;;;;;4.00;2.62;;;;;;;15.61;43.55;103097.69;1534795;93;21614;-53
2021/10/26 09:35:16;;;;;;;3.85;2.20;;;;;;;15.61;43.31;103097.69;1523601;93;21077;-53
2021/10/26 09:40:20;;;;;;;3.62;2.30;;;;;;;15.62;44.06;103092.86;1485494;95;21567;-50
2021/10/26 09:42:49;;;;;;;3.00;2.15;;;;;;;15.63;43.75;103094.61;1484913;95;21112;-51
2021/10/26 09:45:30;;;;;;;3.10;2.20;;;;;;;15.63;43.71;103089.36;1486145;95;22102;-51
2021/10/26 09:48:04;;;;;;;6.00;2.77;;;;;;;15.63;43.94;103088.05;1440615;98;21102;-49
2021/10/26 09:50:36;;;;;;;3.90;2.02;;;;;;;15.64;43.91;103081.06;1387719;100;21180;-53
2021/10/26 09:53:06;;;;;;;3.17;2.22;;;;;;;15.65;44.33;103079.73;1395031;101;21500;-52
2021/10/26 09:55:39;;;;;;;4.55;2.17;;;;;;;15.67;44.17;103078.40;1394971;101;21591;-52
2021/10/26 09:58:10;;;;;;;4.90;1.80;;;;;;;15.69;44.09;103073.58;1371050;103;21244;-52
2021/10/26 10:00:39;;;;;;;6.55;2.00;;;;;;;15.71;44.03;103073.13;1355905;105;21105;-52
2021/10/26 10:03:19;;;;;;;3.50;2.12;;;;;;;15.73;43.81;103070.05;1373439;103;21166;-54
2021/10/26 10:05:59;;;;;;;3.33;3.02;;;;;;;15.76;43.88;103064.80;1341174;106;21277;-53
2021/10/26 10:08:39;;;;;;;4.17;2.40;;;;;;;15.80;44.01;103069.14;1330810;107;21173;-51
2021/10/26 10:11:11;;;;;;;3.90;2.02;;;;;;;15.83;43.73;103065.17;1288479;110;21287;-52
2021/10/26 10:13:40;;;;;;;5.97;2.25;;;;;;;15.85;43.43;103059.47;1290105;110;21218;-51
2021/10/26 10:16:13;;;;;;;3.85;2.40;;;;;;;15.95;43.31;103058.98;1292761;110;21233;-51
2021/10/26 10:18:42;;;;;;;3.17;2.17;;;;;;;16.00;43.31;103050.61;1293551;110;21239;-51
2021/10/26 10:21:12;;;;;;;3.90;2.40;;;;;;;16.07;42.98;103049.69;1294614;110;21188;-50
2021/10/26 10:23:42;;;;;;;3.35;2.10;;;;;;;16.14;42.64;103044.36;1282061;110;21207;-51
2021/10/26 10:26:13;;;;;;;2.72;2.00;;;;;;;16.20;42.45;103041.67;1292042;110;21285;-51
2021/10/26 10:28:45;;;;;;;4.10;2.10;;;;;;;16.26;42.67;103041.62;1291095;109;21246;-52
2021/10/26 10:31:14;;;;;;;4.75;2.52;;;;;;;16.28;42.69;103045.10;1302511;110;21263;-50
2021/10/26 10:33:45;;;;;;;5.62;2.00;;;;;;;16.31;42.80;103041.58;1303526;109;21241;-50
2021/10/26 10:36:12;;;;;;;5.78;2.52;;;;;;;16.35;42.87;103034.53;1313421;107;21340;-50
2021/10/26 10:38:40;;;;;;;3.40;2.40;;;;;;;16.41;42.80;103035.35;1329388;107;21170;-50
2021/10/26 10:41:33;;;;;;;2.22;1.85;;;;;;;16.46;42.71;103037.94;1343993;102;21718;-50
2021/10/26 10:44:05;;;;;;;3.70;2.20;;;;;;;16.48;42.23;103032.23;1401441;101;21104;-50
2021/10/26 10:46:54;;;;;;;6.33;2.08;;;;;;;16.47;42.47;103029.16;1401749;101;21130;-51
2021/10/26 10:49:36;;;;;;;3.70;2.42;;;;;;;16.45;42.42;103026.98;1445812;97;21097;-50
2021/10/26 10:52:10;;;;;;;3.52;1.82;;;;;;;16.43;42.17;103020.88;1493853;95;21131;-50
2021/10/26 10:54:48;;;;;;;3.10;2.05;;;;;;;16.43;42.28;103020.88;1550429;88;21018;-52
2021/10/26 10:57:37;;;;;;;5.95;2.25;;;;;;;16.43;42.46;103016.93;1602047;88;21041;-49
2021/10/26 11:00:28;;;;;;;2.80;1.98;;;;;;;16.46;43.00;103011.66;1618089;88;21534;-51
2021/10/26 11:02:57;;;;;;;4.62;1.90;;;;;;;16.53;42.21;103002.84;1708683;82;21042;-49
2021/10/26 11:05:40;;;;;;;5.35;1.90;;;;;;;16.59;41.83;103008.06;1741867;81;21061;-52
2021/10/26 11:08:13;;;;;;;3.45;1.90;;;;;;;16.63;41.88;103001.88;1738594;82;21550;-50
2021/10/26 11:10:54;;;;;;;3.42;2.08;;;;;;;16.67;41.51;102995.70;1667828;86;21103;-52
2021/10/26 11:13:24;;;;;;;3.22;2.10;;;;;;;16.69;41.80;102995.23;1668039;86;21082;-49
2021/10/26 11:15:53;;;;;;;3.12;2.27;;;;;;;16.73;41.75;102996.94;1662069;86;21027;-49
2021/10/26 11:18:45;;;;;;;4.60;1.62;;;;;;;16.74;41.79;102992.09;1627924;86;21600;-50
2021/10/26 11:21:29;;;;;;;3.40;2.80;;;;;;;16.76;41.83;102987.69;1614784;88;21121;-51
2021/10/26 11:24:06;;;;;;;2.47;2.00;;;;;;;16.76;41.63;102987.25;1599298;88;21585;-50
2021/10/26 11:26:42;;;;;;;3.67;2.20;;;;;;;16.77;42.11;102988.12;1605399;88;21604;-51
2021/10/26 11:31:56;;;;;;;5.62;2.05;;;;;;;16.80;42.18;102986.76;1554151;91;21142;-50
2021/10/26 11:34:27;;;;;;;5.25;2.02;;;;;;;16.82;42.34;102990.23;1527931;93;21074;-51
2021/10/26 11:37:08;;;;;;;3.50;2.15;;;;;;;16.84;42.04;102981.45;1524721;93;21074;-51
2021/10/26 11:39:39;;;;;;;4.17;1.92;;;;;;;16.86;41.89;102977.04;1430215;100;21139;-49
2021/10/26 11:42:12;;;;;;;3.15;1.80;;;;;;;16.89;41.78;102972.20;1413828;101;21595;-50
2021/10/26 11:44:39;;;;;;;2.58;2.05;;;;;;;16.89;41.64;102966.50;1414556;101;21123;-51
2021/10/26 11:47:07;;;;;;;4.60;1.98;;;;;;;16.89;42.08;102961.23;1410407;101;21146;-49
2021/10/26 11:49:34;;;;;;;2.65;1.92;;;;;;;16.89;42.50;102959.05;1409088;101;21182;-51
2021/10/26 11:52:04;;;;;;;2.33;1.57;;;;;;;16.89;42.22;102956.41;1415616;101;21142;-50
2021/10/26 11:54:39;;;;;;;5.03;2.08;;;;;;;16.89;42.18;102955.10;1412464;101;21095;-50
2021/10/26 11:57:11;;;;;;;4.70;1.92;;;;;;;16.89;42.58;102953.78;1404979;101;21115;-49